createdAt,value
2019-04-27T00:01:35.737Z,99.90
2019-04-27T00:04:28.254Z,99.90
2019-04-27T00:07:16.942Z,99.90
2019-04-27T00:10:08.746Z,99.90
2019-04-27T00:12:38.037Z,99.90
2019-04-27T00:15:13.101Z,99.90
2019-04-27T00:18:01.265Z,99.90
2019-04-27T00:20:43.981Z,99.90
2019-04-27T00:25:52.807Z,99.90
2019-04-27T00:28:24.663Z,99.90
2019-04-27T00:30:59.061Z,99.90
2019-04-27T00:33:36.548Z,99.90
2019-04-27T00:36:13.091Z,99.90
2019-04-27T00:38:45.892Z,99.90
2019-04-27T00:41:15.960Z,99.90
2019-04-27T00:43:56.304Z,99.90
2019-04-27T00:46:24.734Z,99.90
2019-04-27T00:48:57.677Z,99.90
2019-04-27T00:51:34.002Z,99.90
2019-04-27T00:54:08.206Z,99.90
2019-04-27T00:56:59.116Z,99.90
2019-04-27T00:59:48.229Z,99.90
2019-04-27T01:02:19.721Z,99.90
2019-04-27T01:04:54.582Z,99.90
2019-04-27T01:07:24.986Z,99.90
2019-04-27T01:09:55.276Z,99.90
2019-04-27T01:12:24.649Z,99.90
2019-04-27T01:14:53.524Z,99.90
2019-04-27T01:17:22.165Z,99.90
2019-04-27T01:19:52.235Z,99.90
2019-04-27T01:22:22.308Z,99.90
2019-04-27T01:24:50.720Z,99.90
2019-04-27T01:27:24.760Z,99.90
2019-04-27T01:29:56.433Z,99.90
2019-04-27T01:32:24.930Z,99.90
2019-04-27T01:34:53.358Z,99.90
2019-04-27T01:37:28.529Z,99.90
2019-04-27T01:39:58.950Z,99.90
2019-04-27T01:42:32.909Z,99.90
2019-04-27T01:45:08.952Z,99.90
2019-04-27T01:47:43.437Z,99.90
2019-04-27T01:50:12.107Z,99.90
2019-04-27T01:52:46.628Z,99.90
2019-04-27T01:55:18.756Z,99.90
2019-04-27T01:57:56.173Z,99.90
2019-04-27T02:00:31.733Z,99.90
2019-04-27T02:03:01.789Z,99.90
2019-04-27T02:05:34.697Z,99.90
2019-04-27T02:08:03.108Z,99.90
2019-04-27T02:10:32.147Z,99.90
2019-04-27T02:13:00.557Z,99.90
2019-04-27T02:15:29.396Z,99.90
2019-04-27T02:17:59.782Z,99.90
2019-04-27T02:20:33.136Z,99.90
2019-04-27T02:23:04.248Z,99.90
2019-04-27T02:25:32.673Z,99.90
2019-04-27T02:28:19.562Z,99.90
2019-04-27T02:31:04.575Z,99.90
2019-04-27T02:33:37.311Z,99.90
2019-04-27T02:36:14.786Z,99.90
2019-04-27T02:38:43.269Z,99.90
2019-04-27T02:41:12.478Z,99.90
2019-04-27T02:44:01.355Z,99.90
2019-04-27T02:46:33.233Z,99.90
2019-04-27T02:49:06.217Z,99.90
2019-04-27T02:51:33.444Z,99.90
2019-04-27T02:54:05.082Z,99.90
2019-04-27T02:56:40.506Z,99.90
2019-04-27T02:59:11.947Z,99.90
2019-04-27T03:01:50.369Z,99.90
2019-04-27T03:04:20.385Z,99.90
2019-04-27T03:06:54.821Z,99.90
2019-04-27T03:09:23.242Z,99.90
2019-04-27T03:11:51.941Z,99.90
2019-04-27T03:14:34.917Z,99.90
2019-04-27T03:16:54.358Z,99.90
2019-04-27T03:19:29.591Z,99.90
2019-04-27T03:22:01.700Z,99.90
2019-04-27T03:24:50.957Z,99.90
2019-04-27T03:27:21.038Z,99.90
2019-04-27T03:29:52.308Z,99.90
2019-04-27T03:32:26.098Z,99.90
2019-04-27T03:35:02.130Z,99.90
2019-04-27T03:37:30.781Z,99.90
2019-04-27T03:40:00.835Z,99.90
2019-04-27T03:42:29.604Z,99.90
2019-04-27T03:45:03.685Z,99.90
2019-04-27T03:47:32.119Z,99.90
2019-04-27T03:50:06.698Z,99.90
2019-04-27T03:52:36.767Z,99.90
2019-04-27T03:55:26.164Z,99.90
2019-04-27T03:58:13.199Z,99.90
2019-04-27T04:00:42.189Z,99.90
2019-04-27T04:03:10.761Z,99.90
2019-04-27T04:05:42.250Z,99.90
2019-04-27T04:08:21.122Z,99.90
2019-04-27T04:11:03.146Z,99.90
2019-04-27T04:13:43.204Z,99.90
2019-04-27T04:16:25.394Z,99.90
2019-04-27T04:19:01.317Z,99.90
2019-04-27T04:21:30.243Z,99.90
2019-04-27T04:24:01.034Z,99.90
2019-04-27T04:26:32.579Z,99.90
2019-04-27T04:29:00.984Z,99.90
2019-04-27T04:31:35.259Z,99.90
2019-04-27T04:34:05.392Z,99.90
2019-04-27T04:36:35.750Z,99.90
2019-04-27T04:39:12.309Z,99.90
2019-04-27T04:41:50.899Z,99.90
2019-04-27T04:44:32.585Z,99.90
2019-04-27T04:47:19.552Z,99.90
2019-04-27T04:50:06.797Z,99.90
2019-04-27T04:52:25.737Z,99.90
2019-04-27T04:54:59.361Z,99.90
2019-04-27T04:57:29.908Z,99.90
2019-04-27T05:00:00.721Z,99.90
2019-04-27T05:02:32.063Z,99.90
2019-04-27T05:05:02.114Z,99.90
2019-04-27T05:07:30.537Z,99.90
2019-04-27T05:10:02.448Z,99.90
2019-04-27T05:12:33.914Z,99.90
2019-04-27T05:15:02.332Z,99.90
2019-04-27T05:17:34.382Z,99.90
2019-04-27T05:20:26.327Z,99.90
2019-04-27T05:22:54.834Z,99.90
2019-04-27T05:25:24.789Z,99.90
2019-04-27T05:27:55.986Z,99.90
2019-04-27T05:30:29.910Z,99.90
2019-04-27T05:33:08.911Z,99.90
2019-04-27T05:35:43.021Z,99.90
2019-04-27T05:38:13.449Z,99.90
2019-04-27T05:40:50.156Z,99.90
2019-04-27T05:43:20.348Z,99.90
2019-04-27T05:46:20.338Z,99.90
2019-04-27T05:48:51.653Z,99.90
2019-04-27T05:51:20.076Z,99.90
2019-04-27T05:53:58.710Z,99.90
2019-04-27T05:56:30.614Z,99.90
2019-04-27T05:59:01.962Z,99.90
2019-04-27T06:01:35.965Z,99.90
2019-04-27T06:04:10.560Z,99.90
2019-04-27T06:06:50.661Z,99.90
2019-04-27T06:09:20.729Z,99.90
2019-04-27T06:11:50.670Z,99.90
2019-04-27T06:14:21.325Z,99.90
2019-04-27T06:16:59.666Z,99.90
2019-04-27T06:19:31.154Z,99.90
2019-04-27T06:22:02.746Z,99.90
2019-04-27T06:24:32.714Z,99.90
2019-04-27T06:27:03.715Z,99.90
2019-04-27T06:29:39.166Z,99.90
2019-04-27T06:32:11.253Z,99.90
2019-04-27T06:34:42.614Z,99.90
2019-04-27T06:37:21.627Z,99.90
2019-04-27T06:39:52.612Z,99.90
2019-04-27T06:42:27.085Z,99.90
2019-04-27T06:45:04.382Z,99.90
2019-04-27T06:47:32.812Z,99.90
2019-04-27T06:50:01.228Z,99.90
2019-04-27T06:52:29.655Z,99.90
2019-04-27T06:54:58.222Z,99.90
2019-04-27T06:57:26.935Z,99.90
2019-04-27T06:59:59.649Z,99.90
2019-04-27T07:02:33.284Z,99.90
2019-04-27T07:05:08.992Z,99.90
2019-04-27T07:07:39.365Z,99.90
2019-04-27T07:10:18.585Z,99.90
2019-04-27T07:12:51.787Z,99.90
2019-04-27T07:15:21.022Z,99.90
2019-04-27T07:17:52.641Z,99.90
2019-04-27T07:20:21.073Z,99.90
2019-04-27T07:22:49.744Z,99.90
2019-04-27T07:25:22.433Z,99.90
2019-04-27T07:27:52.809Z,99.90
2019-04-27T07:30:21.237Z,99.90
2019-04-27T07:32:51.616Z,99.90
2019-04-27T07:35:22.722Z,99.90
2019-04-27T07:37:54.378Z,99.90
2019-04-27T07:40:25.737Z,99.90
2019-04-27T07:42:59.351Z,99.90
2019-04-27T07:45:39.548Z,99.90
2019-04-27T07:48:10.765Z,99.30
2019-04-27T07:50:43.830Z,99.10
2019-04-27T07:53:13.918Z,99.20
2019-04-27T07:55:44.057Z,99.50
2019-04-27T07:58:24.551Z,99.90
2019-04-27T08:00:54.759Z,99.70
2019-04-27T08:03:25.653Z,99.90
2019-04-27T08:05:55.687Z,99.90
2019-04-27T08:08:42.642Z,99.90
2019-04-27T08:11:12.159Z,99.90
2019-04-27T08:13:49.642Z,99.90
2019-04-27T08:16:25.782Z,99.90
2019-04-27T08:18:59.993Z,99.90
2019-04-27T08:21:29.027Z,99.90
2019-04-27T08:24:05.869Z,99.30
2019-04-27T08:26:50.589Z,98.80
2019-04-27T08:29:23.567Z,97.70
2019-04-27T08:31:56.498Z,96.40
2019-04-27T08:34:39.812Z,96.30
2019-04-27T08:37:11.381Z,95.80
2019-04-27T08:39:39.796Z,94.80
2019-04-27T08:42:15.330Z,95.00
2019-04-27T08:44:45.677Z,95.50
2019-04-27T08:47:14.073Z,95.20
2019-04-27T08:49:42.525Z,94.90
2019-04-27T08:52:13.978Z,94.60
2019-04-27T08:54:46.721Z,94.30
2019-04-27T08:57:18.836Z,94.10
2019-04-27T08:59:49.268Z,93.20
2019-04-27T09:02:19.527Z,91.10
2019-04-27T09:04:53.459Z,90.80
2019-04-27T09:07:41.982Z,91.40
2019-04-27T09:10:21.788Z,91.40
2019-04-27T09:12:58.854Z,91.00
2019-04-27T09:15:31.644Z,90.90
2019-04-27T09:18:09.021Z,89.70
2019-04-27T09:20:39.019Z,90.20
2019-04-27T09:23:11.325Z,87.10
2019-04-27T09:25:42.124Z,87.20
2019-04-27T09:28:12.217Z,82.70
2019-04-27T09:30:40.626Z,81.00
2019-04-27T09:33:09.062Z,76.70
2019-04-27T09:35:40.296Z,76.80
2019-04-27T09:38:08.724Z,77.90
2019-04-27T09:40:37.129Z,78.50
2019-04-27T09:43:10.170Z,77.10
2019-04-27T09:45:44.239Z,77.00
2019-04-27T09:48:22.479Z,74.00
2019-04-27T09:50:49.148Z,67.60
2019-04-27T09:53:26.824Z,61.60
2019-04-27T09:56:03.274Z,56.00
2019-04-27T09:58:36.615Z,50.40
2019-04-27T10:01:16.351Z,47.10
2019-04-27T10:03:47.849Z,44.40
2019-04-27T10:06:16.378Z,40.50
2019-04-27T10:08:45.163Z,37.20
2019-04-27T10:11:21.185Z,33.60
2019-04-27T10:13:51.254Z,31.20
2019-04-27T10:16:21.305Z,31.30
2019-04-27T10:18:49.734Z,28.30
2019-04-27T10:21:19.785Z,29.90
2019-04-27T10:23:49.861Z,31.80
2019-04-27T10:26:21.305Z,33.30
2019-04-27T10:28:56.061Z,34.40
2019-04-27T10:31:24.636Z,37.00
2019-04-27T10:33:55.978Z,38.80
2019-04-27T10:36:40.782Z,35.50
2019-04-27T10:39:22.077Z,36.80
2019-04-27T10:41:52.141Z,36.50
2019-04-27T10:44:23.280Z,36.60
2019-04-27T10:46:51.703Z,34.70
2019-04-27T10:49:22.576Z,38.10
2019-04-27T10:51:50.989Z,40.40
2019-04-27T10:54:20.416Z,41.80
2019-04-27T10:56:51.542Z,45.90
2019-04-27T10:59:24.502Z,49.10
2019-04-27T11:01:56.030Z,52.10
2019-04-27T11:04:28.844Z,55.40
2019-04-27T11:07:10.633Z,55.90
2019-04-27T11:09:44.809Z,57.20
2019-04-27T11:12:16.094Z,58.40
2019-04-27T11:14:44.517Z,60.10
2019-04-27T11:17:12.946Z,58.60
2019-04-27T11:19:45.933Z,60.80
2019-04-27T11:22:17.563Z,57.20
2019-04-27T11:24:47.859Z,50.90
2019-04-27T11:27:18.843Z,49.70
2019-04-27T11:29:50.350Z,48.30
2019-04-27T11:32:24.409Z,48.80
2019-04-27T11:35:01.982Z,48.00
2019-04-27T11:37:32.090Z,46.10
2019-04-27T11:40:03.442Z,45.50
2019-04-27T11:42:40.671Z,45.80
2019-04-27T11:45:17.039Z,45.80
2019-04-27T11:47:48.559Z,47.10
2019-04-27T11:50:19.775Z,47.90
2019-04-27T11:52:56.669Z,47.80
2019-04-27T11:55:27.182Z,45.90
2019-04-27T11:58:16.551Z,46.60
2019-04-27T12:00:45.559Z,47.30
2019-04-27T12:03:18.558Z,49.50
2019-04-27T12:05:49.665Z,49.80
2019-04-27T12:08:22.385Z,49.90
2019-04-27T12:10:58.396Z,50.50
2019-04-27T12:13:29.481Z,50.90
2019-04-27T12:16:00.618Z,52.60
2019-04-27T12:18:37.610Z,55.20
2019-04-27T12:21:08.881Z,59.50
2019-04-27T12:23:41.261Z,64.10
2019-04-27T12:26:11.795Z,72.50
2019-04-27T12:28:41.857Z,77.70
2019-04-27T12:31:20.618Z,86.20
2019-04-27T12:33:50.673Z,91.10
2019-04-27T12:36:19.987Z,92.30
2019-04-27T12:38:53.943Z,93.80
2019-04-27T12:41:25.957Z,94.10
2019-04-27T12:44:16.149Z,94.50
2019-04-27T12:46:44.607Z,94.80
2019-04-27T12:49:16.174Z,93.00
2019-04-27T12:51:46.414Z,93.40
2019-04-27T12:54:16.568Z,92.70
2019-04-27T12:56:52.630Z,91.00
2019-04-27T12:59:46.553Z,90.40
2019-04-27T13:02:15.167Z,90.20
2019-04-27T13:04:43.593Z,91.70
2019-04-27T13:07:16.457Z,90.60
2019-04-27T13:09:46.514Z,87.70
2019-04-27T13:12:19.276Z,86.50
2019-04-27T13:14:49.330Z,87.30
2019-04-27T13:17:18.677Z,83.00
2019-04-27T13:19:50.025Z,84.10
2019-04-27T13:22:20.092Z,84.10
2019-04-27T13:24:53.162Z,85.40
2019-04-27T13:27:21.830Z,88.70
2019-04-27T13:29:52.981Z,90.60
2019-04-27T13:32:21.405Z,90.30
2019-04-27T13:34:56.720Z,89.80
2019-04-27T13:37:36.514Z,90.20
2019-04-27T13:40:11.997Z,90.20
2019-04-27T13:42:48.050Z,89.40
2019-04-27T13:45:35.942Z,88.20
2019-04-27T13:48:26.099Z,89.50
2019-04-27T13:51:02.595Z,86.50
2019-04-27T13:53:32.667Z,86.50
2019-04-27T13:56:02.731Z,85.00
2019-04-27T13:58:34.571Z,83.60
2019-04-27T14:01:04.910Z,85.00
2019-04-27T14:03:41.008Z,85.40
2019-04-27T14:06:12.426Z,87.50
2019-04-27T14:08:40.860Z,88.00
2019-04-27T14:11:10.876Z,89.10
2019-04-27T14:13:39.797Z,87.40
2019-04-27T14:16:08.676Z,87.10
2019-04-27T14:18:38.507Z,88.00
2019-04-27T14:21:09.990Z,84.70
2019-04-27T14:23:41.398Z,83.70
2019-04-27T14:26:12.499Z,84.50
2019-04-27T14:28:42.566Z,85.20
2019-04-27T14:31:16.398Z,87.00
2019-04-27T14:33:48.442Z,87.20
2019-04-27T14:36:18.269Z,90.10
2019-04-27T14:38:50.017Z,92.40
2019-04-27T14:41:20.789Z,92.70
2019-04-27T14:44:05.387Z,93.40
2019-04-27T14:46:28.360Z,94.10
2019-04-27T14:48:56.830Z,94.50
2019-04-27T14:51:33.683Z,94.90
2019-04-27T14:54:09.279Z,95.70
2019-04-27T14:56:48.870Z,96.20
2019-04-27T14:59:20.156Z,96.90
2019-04-27T15:01:51.426Z,97.40
2019-04-27T15:04:19.853Z,97.50
2019-04-27T15:06:50.157Z,99.30
2019-04-27T15:09:21.013Z,98.70
2019-04-27T15:11:49.205Z,98.90
2019-04-27T15:14:20.731Z,98.70
2019-04-27T15:16:52.658Z,99.40
2019-04-27T15:19:32.172Z,99.80
2019-04-27T15:22:19.340Z,99.20
2019-04-27T15:25:06.473Z,99.40
2019-04-27T15:27:20.563Z,99.20
2019-04-27T15:29:49.088Z,99.50
2019-04-27T15:32:19.142Z,98.70
2019-04-27T15:34:52.170Z,99.00
2019-04-27T15:37:35.437Z,99.20
2019-04-27T15:40:10.053Z,99.00
2019-04-27T15:42:41.631Z,98.90
2019-04-27T15:45:11.880Z,98.90
2019-04-27T15:47:42.440Z,98.30
2019-04-27T15:50:09.519Z,98.70
2019-04-27T15:52:38.364Z,99.00
2019-04-27T15:55:17.763Z,99.40
2019-04-27T15:57:38.189Z,99.30
2019-04-27T16:00:17.233Z,99.40
2019-04-27T16:02:40.414Z,99.60
2019-04-27T16:05:09.393Z,99.90
2019-04-27T16:07:38.870Z,99.90
2019-04-27T16:10:09.041Z,99.90
2019-04-27T16:12:39.003Z,99.90
2019-04-27T16:15:08.136Z,99.90
2019-04-27T16:17:38.437Z,99.90
2019-04-27T16:20:07.191Z,99.90
2019-04-27T16:22:35.610Z,99.90
2019-04-27T16:25:05.406Z,99.90
2019-04-27T16:27:35.118Z,99.90
2019-04-27T16:30:11.529Z,99.90
2019-04-27T16:32:36.010Z,99.90
2019-04-27T16:35:05.314Z,99.90
2019-04-27T16:37:38.820Z,99.90
2019-04-27T16:40:08.436Z,99.90
2019-04-27T16:42:38.391Z,99.90
2019-04-27T16:45:08.629Z,99.90
2019-04-27T16:47:38.381Z,99.90
2019-04-27T16:50:08.316Z,99.90
2019-04-27T16:52:38.964Z,99.90
2019-04-27T16:55:08.660Z,99.90
2019-04-27T16:57:39.952Z,99.90
2019-04-27T17:00:11.460Z,99.90
2019-04-27T17:02:40.215Z,99.90
2019-04-27T17:05:09.348Z,99.90
2019-04-27T17:07:39.348Z,99.90
2019-04-27T17:10:09.404Z,99.90
2019-04-27T17:12:43.199Z,99.90
2019-04-27T17:15:26.203Z,99.90
2019-04-27T17:17:59.322Z,99.90
2019-04-27T17:20:28.174Z,99.90
2019-04-27T17:22:58.352Z,99.90
2019-04-27T17:25:27.653Z,99.90
2019-04-27T17:28:04.074Z,99.90
2019-04-27T17:30:30.958Z,99.90
2019-04-27T17:33:01.545Z,99.90
2019-04-27T17:35:34.691Z,99.90
2019-04-27T17:38:03.706Z,99.90
2019-04-27T17:40:34.467Z,99.90
2019-04-27T17:43:06.991Z,99.90
2019-04-27T17:45:36.247Z,99.90
2019-04-27T17:48:06.707Z,99.90
2019-04-27T17:50:32.545Z,99.90
2019-04-27T17:53:00.970Z,99.90
2019-04-27T17:55:29.383Z,99.90
2019-04-27T17:58:00.476Z,99.90
2019-04-27T18:00:32.894Z,99.90
2019-04-27T18:02:58.745Z,99.90
2019-04-27T18:05:28.553Z,99.90
2019-04-27T18:07:57.990Z,99.90
2019-04-27T18:10:28.193Z,99.90
2019-04-27T18:12:58.282Z,99.90
2019-04-27T18:15:26.874Z,99.90
2019-04-27T18:17:58.069Z,99.90
2019-04-27T18:20:28.908Z,99.90
2019-04-27T18:23:08.939Z,99.90
2019-04-27T18:25:43.393Z,99.90
2019-04-27T18:28:15.189Z,99.90
2019-04-27T18:30:52.326Z,99.90
2019-04-27T18:33:20.755Z,99.90
2019-04-27T18:35:49.212Z,99.90
2019-04-27T18:38:17.915Z,99.90
2019-04-27T18:40:46.344Z,99.90
2019-04-27T18:43:14.753Z,99.90
2019-04-27T18:45:45.039Z,99.90
2019-04-27T18:48:18.693Z,99.90
2019-04-27T18:51:07.211Z,99.90
2019-04-27T18:53:35.892Z,99.90
2019-04-27T18:56:05.334Z,99.90
2019-04-27T18:58:34.350Z,99.90
2019-04-27T19:01:02.769Z,99.90
2019-04-27T19:03:31.802Z,99.90
2019-04-27T19:06:00.290Z,99.90
2019-04-27T19:08:28.697Z,99.90
2019-04-27T19:11:00.147Z,99.90
2019-04-27T19:13:27.520Z,99.90
2019-04-27T19:15:57.914Z,99.90
2019-04-27T19:18:26.337Z,99.90
2019-04-27T19:20:54.762Z,99.90
2019-04-27T19:23:23.185Z,99.90
2019-04-27T19:25:58.990Z,99.90
2019-04-27T19:28:45.534Z,99.90
2019-04-27T19:31:18.880Z,99.90
2019-04-27T19:33:48.134Z,99.90
2019-04-27T19:36:16.746Z,99.90
2019-04-27T19:38:45.155Z,99.90
2019-04-27T19:41:13.578Z,99.90
2019-04-27T19:43:41.996Z,99.90
2019-04-27T19:46:10.481Z,99.90
2019-04-27T19:48:38.918Z,99.90
2019-04-27T19:51:09.026Z,99.90
2019-04-27T19:53:39.302Z,99.90
2019-04-27T19:56:07.845Z,99.90
2019-04-27T19:58:40.617Z,99.90
2019-04-27T20:01:19.616Z,99.90
2019-04-27T20:04:05.945Z,99.90
2019-04-27T20:06:34.709Z,99.90
2019-04-27T20:09:23.914Z,99.90
2019-04-27T20:11:52.645Z,99.90
2019-04-27T20:14:21.314Z,99.90
2019-04-27T20:16:51.784Z,99.90
2019-04-27T20:19:21.566Z,99.90
2019-04-27T20:21:50.879Z,99.90
2019-04-27T20:24:19.420Z,99.90
2019-04-27T20:26:47.838Z,99.90
2019-04-27T20:29:16.258Z,99.90
2019-04-27T20:31:44.686Z,99.90
2019-04-27T20:34:13.103Z,99.90
2019-04-27T20:36:41.589Z,99.90
2019-04-27T20:39:11.768Z,99.90
2019-04-27T20:41:41.066Z,99.90
2019-04-27T20:44:12.335Z,99.90
2019-04-27T20:46:41.404Z,99.90
2019-04-27T20:49:20.506Z,99.90
2019-04-27T20:52:05.537Z,99.90
2019-04-27T20:54:34.194Z,99.90
2019-04-27T20:57:02.622Z,99.90
2019-04-27T20:59:31.038Z,99.90
2019-04-27T21:02:01.351Z,99.90
2019-04-27T21:04:37.616Z,99.90
2019-04-27T21:07:07.681Z,99.90
2019-04-27T21:09:36.084Z,99.90
2019-04-27T21:12:04.514Z,99.90
2019-04-27T21:14:32.938Z,99.90
2019-04-27T21:17:01.754Z,99.90
2019-04-27T21:19:31.227Z,99.90
2019-04-27T21:22:01.263Z,99.90
2019-04-27T21:24:31.125Z,99.90
2019-04-27T21:26:59.904Z,99.90
2019-04-27T21:29:28.334Z,99.90
2019-04-27T21:31:56.755Z,99.90
2019-04-27T21:34:25.179Z,99.90
2019-04-27T21:36:53.594Z,99.90
2019-04-27T21:39:22.017Z,99.90
2019-04-27T21:41:51.712Z,99.90
2019-04-27T21:44:21.777Z,99.90
2019-04-27T21:46:51.843Z,99.90
2019-04-27T21:49:22.298Z,99.90
2019-04-27T21:52:07.242Z,99.90
2019-04-27T21:54:41.147Z,99.90
2019-04-27T21:57:11.147Z,99.90
2019-04-27T21:59:39.799Z,99.90
2019-04-27T22:02:11.960Z,99.90
2019-04-27T22:04:41.702Z,99.90
2019-04-27T22:07:11.561Z,99.90
2019-04-27T22:09:43.022Z,99.90
2019-04-27T22:12:11.212Z,99.90
2019-04-27T22:14:39.813Z,99.90
2019-04-27T22:17:08.272Z,99.90
2019-04-27T22:19:36.693Z,99.90
2019-04-27T22:22:06.750Z,99.90
2019-04-27T22:24:42.863Z,99.90
2019-04-27T22:27:09.687Z,99.90
2019-04-27T22:29:38.116Z,99.90
2019-04-27T22:32:06.656Z,99.90
2019-04-27T22:34:35.090Z,99.90
2019-04-27T22:37:03.687Z,99.90
2019-04-27T22:39:36.451Z,99.90
2019-04-27T22:42:06.575Z,99.90
2019-04-27T22:44:44.185Z,99.90
2019-04-27T22:47:13.019Z,99.90
2019-04-27T22:49:41.454Z,99.90
2019-04-27T22:52:11.664Z,99.90
2019-04-27T22:54:41.975Z,99.90
2019-04-27T22:57:12.190Z,99.90
2019-04-27T22:59:51.053Z,99.90
2019-04-27T23:02:24.056Z,99.90
2019-04-27T23:04:56.855Z,99.90
2019-04-27T23:07:25.272Z,99.90
2019-04-27T23:09:53.946Z,99.90
2019-04-27T23:12:23.095Z,99.90
2019-04-27T23:14:51.615Z,99.90
2019-04-27T23:17:22.616Z,99.90
2019-04-27T23:19:51.124Z,99.90
2019-04-27T23:22:21.276Z,99.90
2019-04-27T23:24:51.723Z,99.90
2019-04-27T23:27:21.619Z,99.90
2019-04-27T23:29:51.449Z,99.90
2019-04-27T23:32:23.732Z,99.90
2019-04-27T23:34:51.810Z,99.90
2019-04-27T23:37:20.470Z,99.90
2019-04-27T23:39:49.155Z,99.90
2019-04-27T23:42:17.577Z,99.90
2019-04-27T23:44:45.994Z,99.90
2019-04-27T23:47:14.425Z,99.90
2019-04-27T23:49:42.851Z,99.90
2019-04-27T23:52:15.438Z,99.90
2019-04-27T23:54:43.845Z,99.90
2019-04-27T23:57:12.272Z,99.90
2019-04-27T23:59:41.614Z,99.90
